Time;durP1;ratioP1;P1;durP2;ratioP2;P2;SDS_P1;SDS_P2;PMS_P1;PMS_P2;Temp;Humidity;BMP_temperature;BMP_pressure;BME280_temperature;BME280_humidity;BME280_pressure;Samples;Min_cycle;Max_cycle;Signal;HPM_P1;HPM_P2
2021/10/07 00:00:17;;;;;;;28.15;18.23;;;;;;;13.45;83.54;101499.20;1738995;80;29553;-65
2021/10/07 00:02:43;;;;;;;28.32;19.15;;;;;;;13.46;83.59;101498.27;1733958;80;25764;-65
2021/10/07 00:05:11;;;;;;;29.27;19.30;;;;;;;13.47;83.60;101499.55;1745495;80;25815;-65
2021/10/07 00:07:38;;;;;;;30.48;17.92;;;;;;;13.49;83.60;101504.41;1741422;80;26674;-65
2021/10/07 00:10:06;;;;;;;33.42;18.37;;;;;;;13.50;83.55;101504.81;1739306;80;26458;-65
2021/10/07 00:12:31;;;;;;;27.25;19.35;;;;;;;13.50;83.53;101507.50;1733343;80;27487;-65
2021/10/07 00:14:57;;;;;;;30.80;20.25;;;;;;;13.50;83.59;101505.28;1751129;80;25689;-65
2021/10/07 00:17:23;;;;;;;30.77;21.30;;;;;;;13.51;83.57;101512.42;1750364;80;25748;-65
2021/10/07 00:19:49;;;;;;;34.23;21.70;;;;;;;13.50;83.56;101507.97;1746011;80;28083;-65
2021/10/07 00:22:15;;;;;;;31.07;20.90;;;;;;;13.50;83.58;101512.02;1733357;80;26528;-65
2021/10/07 00:24:41;;;;;;;29.67;20.45;;;;;;;13.51;83.57;101520.03;1746755;80;27828;-65
2021/10/07 00:27:08;;;;;;;30.35;21.62;;;;;;;13.49;83.54;101517.87;1747338;80;26356;-65
2021/10/07 00:29:39;;;;;;;31.82;19.82;;;;;;;13.49;83.60;101522.38;1753721;79;25744;-65
2021/10/07 00:32:10;;;;;;;28.85;22.58;;;;;;;13.50;83.65;101526.83;1751591;80;26104;-65
2021/10/07 00:35:01;;;;;;;29.92;21.42;;;;;;;13.47;83.57;101521.56;1759153;80;26372;-64
2021/10/07 00:40:05;;;;;;;32.70;23.55;;;;;;;13.45;83.66;101522.98;1766726;80;25850;-65
2021/10/07 00:42:31;;;;;;;35.78;22.27;;;;;;;13.45;83.68;101524.33;1769272;80;25748;-65
2021/10/07 00:44:57;;;;;;;34.63;22.15;;;;;;;13.45;83.66;101519.41;1755503;80;26093;-65
2021/10/07 00:47:23;;;;;;;39.08;23.47;;;;;;;13.44;83.71;101523.92;1756808;80;25855;-65
2021/10/07 00:49:49;;;;;;;31.35;23.38;;;;;;;13.44;83.71;101525.73;1763129;79;27395;-65
2021/10/07 00:52:19;;;;;;;34.40;23.42;;;;;;;13.44;83.69;101527.08;1753458;80;25798;-65
2021/10/07 00:54:52;;;;;;;34.53;23.95;;;;;;;13.44;83.70;101523.04;1750851;80;25792;-65
2021/10/07 00:57:20;;;;;;;36.25;25.25;;;;;;;13.43;83.75;101523.98;1756755;80;26408;-67
2021/10/07 00:59:48;;;;;;;41.40;26.05;;;;;;;13.38;83.82;101514.74;1757627;80;25782;-65
2021/10/07 01:02:15;;;;;;;33.30;23.50;;;;;;;13.43;83.77;101519.94;1771813;80;27454;-64
2021/10/07 01:04:43;;;;;;;39.78;25.50;;;;;;;13.40;83.78;101516.03;1758404;79;27184;-65
2021/10/07 01:07:09;;;;;;;38.70;25.17;;;;;;;13.38;83.83;101520.59;1756213;80;25719;-66
2021/10/07 01:09:35;;;;;;;34.35;26.27;;;;;;;13.39;83.79;101523.70;1761298;80;25966;-65
2021/10/07 01:12:04;;;;;;;36.33;25.25;;;;;;;13.37;83.88;101521.54;1758394;80;25728;-64
2021/10/07 01:14:45;;;;;;;38.53;25.27;;;;;;;13.39;83.95;101525.05;1768570;80;27371;-65
2021/10/07 01:17:13;;;;;;;42.50;26.97;;;;;;;13.40;83.90;101522.77;1755990;80;30286;-65
2021/10/07 01:19:46;;;;;;;37.40;25.25;;;;;;;13.37;83.96;101521.54;1758888;80;26246;-64
2021/10/07 01:22:14;;;;;;;34.48;24.47;;;;;;;13.38;83.90;101528.68;1763399;80;28217;-65
2021/10/07 01:24:41;;;;;;;38.45;25.68;;;;;;;13.35;83.91;101514.87;1751960;80;25823;-65
2021/10/07 01:27:08;;;;;;;38.20;24.75;;;;;;;13.34;83.99;101515.81;1767536;80;27728;-65
2021/10/07 01:29:36;;;;;;;35.58;25.55;;;;;;;13.33;83.99;101518.97;1753131;80;26086;-65
2021/10/07 01:32:05;;;;;;;37.28;26.17;;;;;;;13.33;84.03;101515.41;1780407;80;25700;-66
2021/10/07 01:34:32;;;;;;;39.08;26.40;;;;;;;13.33;84.10;101519.44;1764748;80;26747;-65
2021/10/07 01:36:59;;;;;;;39.35;27.67;;;;;;;13.33;84.02;101518.09;1765838;80;26104;-66
2021/10/07 01:39:26;;;;;;;42.35;27.02;;;;;;;13.31;84.11;101523.55;1753399;80;27373;-66
2021/10/07 01:41:52;;;;;;;43.83;28.47;;;;;;;13.31;84.14;101523.55;1739760;80;25818;-65
2021/10/07 01:44:22;;;;;;;42.00;27.90;;;;;;;13.30;84.15;101521.79;1756530;80;25846;-65
2021/10/07 01:46:48;;;;;;;47.67;29.60;;;;;;;13.32;84.18;101537.41;1765955;80;26096;-65
2021/10/07 01:49:15;;;;;;;42.20;28.07;;;;;;;13.27;84.09;101531.34;1761633;80;25895;-65
2021/10/07 01:51:40;;;;;;;37.95;26.50;;;;;;;13.24;84.11;101533.27;1754467;80;27330;-65
2021/10/07 01:54:06;;;;;;;47.23;28.77;;;;;;;13.20;84.11;101538.37;1753077;80;25916;-65
2021/10/07 01:56:33;;;;;;;44.27;26.48;;;;;;;13.14;84.21;101534.08;1752856;80;25941;-65
2021/10/07 01:59:01;;;;;;;39.98;24.55;;;;;;;13.10;84.21;101532.45;1766561;79;26957;-65
2021/10/07 02:01:27;;;;;;;41.30;26.62;;;;;;;13.04;84.26;101539.88;1753222;80;25280;-65
2021/10/07 02:03:53;;;;;;;47.40;28.15;;;;;;;12.97;84.38;101537.94;1770077;80;27546;-65
2021/10/07 02:06:19;;;;;;;42.60;27.22;;;;;;;12.96;84.46;101541.56;1752429;80;25751;-65
2021/10/07 02:08:45;;;;;;;38.88;26.42;;;;;;;12.94;84.41;101538.93;1750353;80;25763;-65
2021/10/07 02:11:11;;;;;;;48.50;26.55;;;;;;;12.92;84.42;101540.80;1761980;80;26741;-65
2021/10/07 02:13:37;;;;;;;36.90;25.52;;;;;;;12.92;84.50;101537.23;1759677;79;26509;-65
2021/10/07 02:16:05;;;;;;;40.88;26.50;;;;;;;12.93;84.55;101541.21;1768338;80;27381;-65
2021/10/07 02:18:33;;;;;;;38.78;25.65;;;;;;;12.94;84.57;101543.44;1755571;80;26423;-65
2021/10/07 02:21:00;;;;;;;42.38;27.25;;;;;;;12.94;84.61;101544.31;1764631;80;25289;-65
2021/10/07 02:23:26;;;;;;;45.60;29.10;;;;;;;12.97;84.65;101550.05;1754270;80;26044;-65
2021/10/07 02:25:52;;;;;;;41.48;27.50;;;;;;;12.97;84.63;101545.54;1747876;80;26559;-65
2021/10/07 02:28:17;;;;;;;41.45;26.55;;;;;;;12.94;84.57;101551.51;1754859;80;27390;-65
2021/10/07 02:30:44;;;;;;;38.05;25.95;;;;;;;12.90;84.61;101544.02;1758944;80;26399;-65
2021/10/07 02:33:10;;;;;;;42.83;28.30;;;;;;;12.91;84.70;101544.91;1758426;80;25804;-66
2021/10/07 02:35:36;;;;;;;42.13;25.17;;;;;;;12.88;84.66;101547.23;1756491;80;26059;-65
2021/10/07 02:38:03;;;;;;;39.85;25.37;;;;;;;12.87;84.68;101551.34;1757069;80;25703;-66
2021/10/07 02:40:29;;;;;;;38.63;26.07;;;;;;;12.85;84.74;101550.05;1768280;80;27990;-66
2021/10/07 02:42:56;;;;;;;45.75;27.35;;;;;;;12.86;84.78;101558.53;1749762;80;27179;-66
2021/10/07 02:45:23;;;;;;;55.35;25.48;;;;;;;12.87;84.84;101558.06;1779645;80;25789;-65
2021/10/07 02:47:51;;;;;;;41.92;25.45;;;;;;;12.87;84.77;101560.75;1753434;80;28087;-65
2021/10/07 02:50:20;;;;;;;36.25;25.02;;;;;;;12.86;84.76;101559.00;1760063;80;26168;-65
2021/10/07 02:52:47;;;;;;;36.68;25.90;;;;;;;12.85;84.85;101559.47;1754391;79;27431;-64
2021/10/07 02:55:14;;;;;;;42.00;26.57;;;;;;;12.89;84.90;101570.98;1753561;80;25837;-65
2021/10/07 02:57:41;;;;;;;43.70;26.68;;;;;;;12.89;84.89;101565.61;1756075;80;25850;-64
2021/10/07 03:00:10;;;;;;;44.77;25.80;;;;;;;12.88;84.83;101570.11;1762557;80;26007;-64
2021/10/07 03:02:36;;;;;;;36.83;25.37;;;;;;;12.89;84.92;101570.52;1767092;80;25739;-65
2021/10/07 03:05:05;;;;;;;38.78;25.88;;;;;;;12.91;85.00;101571.34;1786498;80;27467;-65
2021/10/07 03:07:31;;;;;;;38.70;26.57;;;;;;;12.94;85.00;101575.73;1778946;80;26441;-65
2021/10/07 03:09:57;;;;;;;42.95;27.02;;;;;;;12.98;85.05;101574.67;1772328;80;25283;-65
2021/10/07 03:12:24;;;;;;;37.50;27.55;;;;;;;13.01;85.13;101583.94;1760656;80;26023;-64
2021/10/07 03:14:49;;;;;;;43.42;27.58;;;;;;;13.04;85.09;101585.17;1759578;80;25721;-65
2021/10/07 03:17:16;;;;;;;47.17;26.75;;;;;;;13.08;85.12;101588.16;1759174;80;27393;-65
2021/10/07 03:19:43;;;;;;;42.00;26.87;;;;;;;13.11;85.08;101588.03;1759627;80;26020;-65
2021/10/07 03:22:10;;;;;;;40.05;26.90;;;;;;;13.13;85.12;101587.97;1752204;80;25778;-65
2021/10/07 03:24:36;;;;;;;44.45;27.20;;;;;;;13.14;85.15;101589.26;1762783;80;26110;-65
2021/10/07 03:27:04;;;;;;;42.25;27.40;;;;;;;13.15;85.11;101584.28;1764142;80;25650;-65
2021/10/07 03:29:31;;;;;;;37.95;26.52;;;;;;;13.16;85.17;101587.85;1758023;80;27445;-65
2021/10/07 03:31:57;;;;;;;54.20;31.05;;;;;;;13.19;85.18;101598.53;1754739;80;26064;-65
2021/10/07 03:34:23;;;;;;;46.28;28.17;;;;;;;13.19;85.16;101599.88;1754518;79;25813;-65
2021/10/07 03:36:50;;;;;;;46.42;27.80;;;;;;;13.19;85.14;101604.80;1753519;80;26072;-65
2021/10/07 03:39:16;;;;;;;41.50;27.82;;;;;;;13.19;85.22;101608.84;1750966;80;25782;-65
2021/10/07 03:41:42;;;;;;;45.73;30.15;;;;;;;13.21;85.27;101619.55;1764583;80;27375;-65
2021/10/07 03:44:07;;;;;;;46.30;28.15;;;;;;;13.22;85.30;101620.83;1765246;80;26478;-65
2021/10/07 03:46:33;;;;;;;46.58;30.68;;;;;;;13.25;85.25;101625.22;1757444;80;25797;-65
2021/10/07 03:49:00;;;;;;;54.35;29.80;;;;;;;13.24;85.28;101626.16;1753525;80;26311;-65
2021/10/07 03:51:26;;;;;;;42.27;28.90;;;;;;;13.25;85.33;101623.41;1752138;80;26457;-65
2021/10/07 03:53:52;;;;;;;45.92;27.85;;;;;;;13.27;85.29;101624.23;1740277;80;27409;-65
2021/10/07 03:56:18;;;;;;;47.50;29.63;;;;;;;13.23;85.19;101622.59;1754863;80;25703;-65
2021/10/07 03:58:45;;;;;;;44.48;27.90;;;;;;;13.22;85.33;101622.17;1775787;80;25742;-65
2021/10/07 04:01:11;;;;;;;54.85;29.15;;;;;;;13.22;85.24;101630.26;1749680;80;26007;-65
2021/10/07 04:03:37;;;;;;;50.58;27.67;;;;;;;13.17;85.20;101626.86;1749620;80;25818;-65
2021/10/07 04:06:03;;;;;;;39.48;27.55;;;;;;;13.17;85.36;101635.41;1751605;80;27426;-65
2021/10/07 04:08:29;;;;;;;44.55;26.90;;;;;;;13.14;85.30;101635.02;1745103;80;25867;-65
2021/10/07 04:10:54;;;;;;;52.93;29.32;;;;;;;13.14;85.42;101635.02;1751759;80;25735;-65
2021/10/07 04:13:23;;;;;;;48.42;28.75;;;;;;;13.15;85.36;101641.28;1776054;80;26014;-66
2021/10/07 04:15:50;;;;;;;44.10;28.32;;;;;;;13.15;85.40;101636.78;1759080;80;25904;-65
2021/10/07 04:18:19;;;;;;;44.05;27.80;;;;;;;13.16;85.42;101643.95;1758941;80;27383;-66
2021/10/07 04:20:48;;;;;;;41.02;28.10;;;;;;;13.16;85.45;101647.98;1751272;80;25801;-65
2021/10/07 04:23:16;;;;;;;48.25;29.07;;;;;;;13.16;85.42;101646.64;1762844;80;25771;-66
2021/10/07 04:25:42;;;;;;;57.25;29.45;;;;;;;13.16;85.45;101649.33;1760242;80;26301;-66
2021/10/07 04:28:08;;;;;;;44.27;28.55;;;;;;;13.16;85.45;101645.30;1760443;80;25682;-68
2021/10/07 04:30:39;;;;;;;47.98;28.80;;;;;;;13.18;85.52;101650.16;1776323;79;27451;-66
2021/10/07 04:33:11;;;;;;;47.88;28.42;;;;;;;13.19;85.50;101648.34;1761028;80;25798;-66
2021/10/07 04:35:41;;;;;;;49.15;28.65;;;;;;;13.18;85.50;101649.28;1750682;80;26555;-65
2021/10/07 04:38:08;;;;;;;46.85;27.42;;;;;;;13.18;85.46;101649.28;1750655;80;26152;-65
2021/10/07 04:40:36;;;;;;;46.88;29.27;;;;;;;13.18;85.60;101654.19;1753587;80;25686;-66
2021/10/07 04:43:03;;;;;;;50.85;28.62;;;;;;;13.20;85.61;101658.17;1752713;80;27388;-66
2021/10/07 04:45:29;;;;;;;50.90;28.25;;;;;;;13.20;85.57;101665.78;1753618;80;25766;-66
2021/10/07 04:47:56;;;;;;;45.55;26.93;;;;;;;13.21;85.53;101666.19;1769622;80;25822;-66
2021/10/07 04:50:22;;;;;;;47.30;28.57;;;;;;;13.21;85.58;101671.58;1758981;80;25952;-66
2021/10/07 04:52:47;;;;;;;44.40;27.90;;;;;;;13.22;85.60;101677.84;1756143;80;25758;-66
2021/10/07 04:55:13;;;;;;;46.05;27.90;;;;;;;13.22;85.60;101675.15;1750764;80;27391;-66
2021/10/07 04:57:39;;;;;;;44.75;28.70;;;;;;;13.22;85.59;101686.80;1760458;80;26393;-66
2021/10/07 05:00:07;;;;;;;41.88;27.32;;;;;;;13.23;85.61;101683.16;1752482;80;26386;-65
2021/10/07 05:02:40;;;;;;;49.38;27.95;;;;;;;13.24;85.60;101690.30;1728129;80;25946;-68
2021/10/07 05:05:09;;;;;;;49.83;28.62;;;;;;;13.25;85.70;101695.22;1761127;80;25968;-66
2021/10/07 05:07:35;;;;;;;53.73;31.65;;;;;;;13.25;85.66;101690.72;1767399;80;27379;-65
2021/10/07 05:10:01;;;;;;;51.95;30.32;;;;;;;13.26;85.65;101696.51;1750761;80;25742;-66
2021/10/07 05:12:27;;;;;;;51.90;31.35;;;;;;;13.26;85.60;101702.36;1753350;80;26420;-68
2021/10/07 05:14:53;;;;;;;50.52;30.23;;;;;;;13.24;85.68;101705.11;1750414;80;26017;-65
2021/10/07 05:17:19;;;;;;;54.35;31.27;;;;;;;13.25;85.70;101704.64;1749649;80;25889;-65
2021/10/07 05:19:45;;;;;;;55.98;30.72;;;;;;;13.24;85.63;101702.42;1762050;80;27395;-66
2021/10/07 05:22:11;;;;;;;52.45;30.72;;;;;;;13.22;85.75;101702.95;1774127;80;25753;-66
2021/10/07 05:24:36;;;;;;;55.70;30.92;;;;;;;13.23;85.69;101707.86;1769647;80;26489;-65
2021/10/07 05:27:03;;;;;;;49.42;29.90;;;;;;;13.22;85.76;101705.64;1757281;80;27111;-65
2021/10/07 05:29:29;;;;;;;55.88;31.80;;;;;;;13.24;85.76;101713.19;1761888;80;25773;-66
2021/10/07 05:31:55;;;;;;;57.17;32.35;;;;;;;13.26;85.86;101712.66;1762391;80;27571;-65
2021/10/07 05:34:21;;;;;;;61.13;31.20;;;;;;;13.31;85.87;101716.53;1773436;80;25674;-65
2021/10/07 05:36:47;;;;;;;53.55;30.00;;;;;;;13.32;85.89;101720.52;1770000;80;25822;-65
2021/10/07 05:39:13;;;;;;;51.92;31.17;;;;;;;13.36;85.89;101721.27;1763295;80;26045;-65
2021/10/07 05:41:38;;;;;;;55.52;30.30;;;;;;;13.35;85.80;101722.69;1781800;80;26393;-65
2021/10/07 05:44:09;;;;;;;54.90;31.87;;;;;;;13.37;85.85;101719.46;1764798;80;27325;-68
2021/10/07 05:46:32;;;;;;;59.03;31.60;;;;;;;13.38;85.90;101723.91;1752495;80;25834;-67
2021/10/07 05:48:58;;;;;;;61.48;31.52;;;;;;;13.41;85.81;101723.80;1769564;80;25833;-65
2021/10/07 05:51:24;;;;;;;60.00;32.85;;;;;;;13.41;85.77;101718.41;1758568;80;28158;-65
2021/10/07 05:53:49;;;;;;;57.50;32.80;;;;;;;13.38;85.82;101718.06;1772433;80;26368;-65
2021/10/07 05:56:15;;;;;;;53.58;31.00;;;;;;;13.40;85.87;101724.27;1751169;80;27508;-66
2021/10/07 05:58:41;;;;;;;69.17;32.73;;;;;;;13.42;85.83;101725.55;1754499;80;25540;-65
2021/10/07 06:01:07;;;;;;;63.28;32.33;;;;;;;13.40;85.82;101727.42;1756654;80;25785;-66
2021/10/07 06:03:33;;;;;;;66.57;33.98;;;;;;;13.38;85.83;101732.88;1753641;80;26004;-66
2021/10/07 06:06:00;;;;;;;61.35;31.42;;;;;;;13.39;85.90;101739.13;1756696;80;25735;-67
2021/10/07 06:08:26;;;;;;;63.28;32.42;;;;;;;13.40;85.89;101743.11;1755656;80;27394;-66
2021/10/07 06:10:51;;;;;;;65.62;31.45;;;;;;;13.40;85.86;101744.93;1742292;80;25820;-67
2021/10/07 06:13:17;;;;;;;61.13;33.67;;;;;;;13.39;85.86;101747.22;1753178;80;26623;-66
2021/10/07 06:15:43;;;;;;;61.60;32.93;;;;;;;13.36;85.84;101755.41;1766766;80;26068;-68
2021/10/07 06:18:09;;;;;;;66.45;34.00;;;;;;;13.37;85.93;101755.34;1769469;80;25760;-67
2021/10/07 06:20:35;;;;;;;56.68;32.73;;;;;;;13.40;85.99;101753.01;1755088;80;27394;-67
2021/10/07 06:23:05;;;;;;;62.65;34.38;;;;;;;13.43;85.97;101758.28;1751000;80;25722;-67
2021/10/07 06:25:34;;;;;;;67.00;35.60;;;;;;;13.45;85.94;101759.98;1770605;78;25910;-67
2021/10/07 06:28:04;;;;;;;69.42;37.45;;;;;;;13.46;85.87;101758.17;1764280;80;26591;-68
2021/10/07 06:30:30;;;;;;;75.32;39.50;;;;;;;13.45;85.85;101764.02;1758479;80;25841;-67
2021/10/07 06:32:59;;;;;;;77.32;40.17;;;;;;;13.44;85.87;101770.34;1758761;80;27326;-64
2021/10/07 06:35:26;;;;;;;75.80;41.45;;;;;;;13.44;85.80;101770.81;1757429;80;27092;-68
2021/10/07 06:37:53;;;;;;;85.80;41.68;;;;;;;13.42;85.79;101773.56;1752274;80;25936;-65
2021/10/07 06:40:18;;;;;;;72.47;39.83;;;;;;;13.40;85.74;101770.52;1771711;80;26442;-68
2021/10/07 06:42:45;;;;;;;69.85;40.50;;;;;;;13.41;85.79;101773.62;1771544;79;25611;-70
2021/10/07 06:45:11;;;;;;;83.35;41.37;;;;;;;13.43;85.80;101770.40;1791365;79;27357;-66
2021/10/07 06:47:38;;;;;;;84.70;43.92;;;;;;;13.42;85.70;101768.64;1787861;79;26500;-67
2021/10/07 06:50:08;;;;;;;73.97;40.75;;;;;;;13.45;85.77;101775.27;1754381;79;25794;-68
2021/10/07 06:52:34;;;;;;;78.07;40.20;;;;;;;13.41;85.66;101776.31;1781401;79;26682;-68
2021/10/07 06:55:02;;;;;;;75.15;39.65;;;;;;;13.36;85.68;101785.91;1770050;79;25314;-68
2021/10/07 06:57:28;;;;;;;79.85;40.90;;;;;;;13.36;85.66;101793.98;1760875;79;27367;-67
2021/10/07 06:59:53;;;;;;;85.83;39.95;;;;;;;13.35;85.64;101793.57;1774464;79;25930;-68
2021/10/07 07:02:19;;;;;;;89.97;41.40;;;;;;;13.33;85.54;101804.41;1774103;79;25823;-68
2021/10/07 07:04:45;;;;;;;97.85;42.45;;;;;;;13.32;85.59;101804.45;1772740;79;26708;-67
2021/10/07 07:07:11;;;;;;;87.47;40.30;;;;;;;13.34;85.66;101809.32;1782148;79;25912;-66
2021/10/07 07:09:37;;;;;;;96.32;40.52;;;;;;;13.32;85.44;101812.53;1770510;79;27405;-67
2021/10/07 07:12:03;;;;;;;92.50;42.05;;;;;;;13.24;85.37;101814.16;1768478;79;26565;-67
2021/10/07 07:14:28;;;;;;;93.27;40.78;;;;;;;13.23;85.52;101813.75;1784955;79;25814;-67
2021/10/07 07:16:54;;;;;;;88.58;41.08;;;;;;;13.28;85.56;101819.84;1794522;79;26437;-67
2021/10/07 07:19:20;;;;;;;89.90;39.33;;;;;;;13.28;85.42;101821.19;1773801;79;25337;-67
2021/10/07 07:21:46;;;;;;;84.60;38.70;;;;;;;13.24;85.44;101828.97;1770958;79;27386;-68
2021/10/07 07:24:12;;;;;;;92.22;39.53;;;;;;;13.29;85.56;101822.07;1792721;79;26494;-65
2021/10/07 07:26:38;;;;;;;83.20;36.98;;;;;;;13.28;85.44;101826.58;1777070;79;25946;-65
2021/10/07 07:29:03;;;;;;;82.75;38.28;;;;;;;13.25;85.38;101829.84;1775606;79;26596;-68
2021/10/07 07:31:30;;;;;;;87.72;38.55;;;;;;;13.24;85.41;101826.73;1755638;79;25872;-66
2021/10/07 07:33:56;;;;;;;89.50;39.92;;;;;;;13.26;85.39;101831.60;1694733;82;27575;-67
2021/10/07 07:36:26;;;;;;;91.65;41.15;;;;;;;13.29;85.43;101835.53;1696689;82;25721;-67
2021/10/07 07:38:52;;;;;;;95.90;39.38;;;;;;;13.40;85.49;101841.88;1664557;84;25703;-67
2021/10/07 07:41:19;;;;;;;86.25;39.83;;;;;;;13.47;85.39;101846.11;1666616;84;26001;-66
2021/10/07 07:43:46;;;;;;;89.65;40.67;;;;;;;13.44;85.17;101844.88;1667583;84;25796;-66
2021/10/07 07:46:13;;;;;;;90.20;39.05;;;;;;;13.44;85.22;101846.22;1677526;83;27387;-67
2021/10/07 07:48:39;;;;;;;89.70;39.58;;;;;;;13.44;85.17;101845.75;1697582;82;25902;-66
2021/10/07 07:51:05;;;;;;;90.62;39.00;;;;;;;13.43;85.10;101852.55;1733807;81;25906;-66
2021/10/07 07:53:31;;;;;;;88.45;40.25;;;;;;;13.43;85.17;101840.42;1735058;81;26037;-69
2021/10/07 07:55:57;;;;;;;94.22;39.60;;;;;;;13.41;85.05;101847.21;1741187;81;25724;-67
2021/10/07 07:58:24;;;;;;;82.22;40.80;;;;;;;13.41;85.03;101841.83;1735193;81;28079;-68
2021/10/07 08:00:50;;;;;;;80.77;39.42;;;;;;;13.44;85.07;101854.30;1747955;81;25783;-68
2021/10/07 08:03:16;;;;;;;81.20;37.60;;;;;;;13.44;84.97;101855.65;1739617;81;25853;-68
2021/10/07 08:05:42;;;;;;;76.77;39.50;;;;;;;13.44;84.92;101854.30;1740674;80;26080;-67
2021/10/07 08:08:08;;;;;;;74.80;39.92;;;;;;;13.45;84.91;101865.02;1733906;80;25749;-67
2021/10/07 08:10:34;;;;;;;65.90;37.60;;;;;;;13.48;84.88;101862.69;1728110;81;27966;-68
2021/10/07 08:13:02;;;;;;;66.50;38.15;;;;;;;13.50;84.74;101867.55;1731739;81;25939;-67
2021/10/07 08:15:28;;;;;;;64.55;36.38;;;;;;;13.55;84.82;101863.76;1735400;81;25842;-68
2021/10/07 08:17:54;;;;;;;62.67;36.17;;;;;;;13.70;84.85;101865.48;1736286;80;26536;-68
2021/10/07 08:20:21;;;;;;;59.67;34.30;;;;;;;13.84;84.92;101880.20;1730692;81;25815;-68
2021/10/07 08:22:48;;;;;;;57.73;33.35;;;;;;;13.93;84.56;101865.03;1739934;81;27375;-64
2021/10/07 08:25:18;;;;;;;53.87;34.48;;;;;;;13.94;84.39;101869.48;1735273;81;26392;-68
2021/10/07 08:27:46;;;;;;;63.08;34.40;;;;;;;13.96;84.36;101860.87;1730027;81;25688;-67
2021/10/07 08:30:14;;;;;;;58.05;34.30;;;;;;;14.02;84.25;101865.62;1731668;81;25944;-69
2021/10/07 08:32:41;;;;;;;56.20;33.70;;;;;;;14.07;84.18;101858.23;1741096;80;26020;-68
2021/10/07 08:35:09;;;;;;;52.58;33.18;;;;;;;14.11;84.08;101866.15;1744424;80;27529;-67
2021/10/07 08:37:35;;;;;;;55.43;34.27;;;;;;;14.15;83.94;101865.09;1740030;80;25818;-69
2021/10/07 08:40:06;;;;;;;52.93;35.33;;;;;;;14.17;83.89;101866.38;1754939;80;26350;-67
2021/10/07 08:42:31;;;;;;;54.00;33.40;;;;;;;14.26;83.98;101866.91;1732771;80;26420;-68
2021/10/07 08:44:57;;;;;;;53.17;33.42;;;;;;;14.33;83.69;101868.00;1740828;80;25918;-68
2021/10/07 08:47:23;;;;;;;53.63;32.63;;;;;;;14.25;83.45;101870.53;1742444;80;27398;-67
2021/10/07 08:49:52;;;;;;;52.15;31.85;;;;;;;14.22;83.31;101864.38;1755933;79;25863;-67
2021/10/07 08:52:20;;;;;;;54.60;31.07;;;;;;;14.24;83.37;101873.29;1748049;80;25782;-66
2021/10/07 08:54:47;;;;;;;56.02;33.28;;;;;;;14.34;83.50;101865.25;1748477;80;26138;-67
2021/10/07 08:57:14;;;;;;;59.80;32.70;;;;;;;14.40;83.29;101873.09;1746054;80;25768;-67
2021/10/07 08:59:41;;;;;;;52.93;30.68;;;;;;;14.44;83.19;101866.67;1752043;80;28017;-67
2021/10/07 09:02:09;;;;;;;48.00;31.02;;;;;;;14.47;83.08;101871.07;1745925;80;25729;-66
2021/10/07 09:04:37;;;;;;;46.98;30.82;;;;;;;14.47;82.94;101867.02;1748664;80;25846;-65
2021/10/07 09:07:10;;;;;;;45.55;29.82;;;;;;;14.50;82.84;101868.25;1740140;80;26064;-68
2021/10/07 09:09:41;;;;;;;49.83;27.95;;;;;;;14.47;82.59;101865.20;1736423;80;25921;-67
2021/10/07 09:12:16;;;;;;;49.83;29.75;;;;;;;14.49;82.55;101876.81;1748107;80;27560;-67
2021/10/07 09:14:46;;;;;;;44.67;28.38;;;;;;;14.56;82.53;101877.45;1751760;80;25815;-67
2021/10/07 09:17:16;;;;;;;43.63;28.87;;;;;;;14.61;82.43;101879.48;1754541;80;25798;-67
2021/10/07 09:19:48;;;;;;;40.48;27.25;;;;;;;14.59;82.17;101883.59;1741005;80;26156;-66
2021/10/07 09:22:29;;;;;;;40.92;27.07;;;;;;;14.51;82.03;101881.67;1752853;80;25770;-67
2021/10/07 09:24:57;;;;;;;;;;;;;;;14.45;81.79;101877.00;1740890;80;28157;-66
2021/10/07 09:27:32;;;;;;;39.25;26.60;;;;;;;14.41;81.68;101874.86;1744914;80;25758;-67
2021/10/07 09:30:11;;;;;;;45.17;27.15;;;;;;;14.40;81.67;101877.14;1755393;80;25772;-69
2021/10/07 09:32:45;;;;;;;41.23;25.80;;;;;;;14.53;81.77;101878.92;1737313;80;26571;-67
2021/10/07 09:35:16;;;;;;;43.05;25.25;;;;;;;14.64;81.73;101876.66;1750844;80;25727;-67
2021/10/07 09:37:45;;;;;;;41.77;24.67;;;;;;;14.81;81.70;101879.55;1743040;80;28130;-66
2021/10/07 09:40:24;;;;;;;31.75;22.80;;;;;;;14.97;81.63;101880.27;1759661;80;25900;-66
2021/10/07 09:43:00;;;;;;;33.83;23.22;;;;;;;15.11;81.55;101885.97;1749143;80;25877;-66
2021/10/07 09:45:29;;;;;;;34.90;22.05;;;;;;;15.13;81.14;101879.55;1746662;80;27015;-66
2021/10/07 09:48:06;;;;;;;36.60;22.07;;;;;;;15.10;80.78;101886.44;1747900;80;25838;-67
2021/10/07 09:50:37;;;;;;;34.40;21.85;;;;;;;15.09;80.55;101883.80;1755262;80;55383;-67
2021/10/07 09:53:14;;;;;;;38.33;22.32;;;;;;;15.19;80.50;101879.30;1746122;80;25826;-66
2021/10/07 09:55:48;;;;;;;30.57;21.52;;;;;;;15.17;80.04;101887.94;1761559;80;25893;-67
2021/10/07 09:58:23;;;;;;;40.52;22.73;;;;;;;15.21;79.95;101894.96;1748038;80;26402;-67
2021/10/07 10:00:54;;;;;;;38.02;21.20;;;;;;;15.23;79.91;101887.67;1744899;80;25881;-66
2021/10/07 10:03:22;;;;;;;32.30;20.67;;;;;;;15.28;79.65;101887.95;1737181;80;27365;-66
2021/10/07 10:05:49;;;;;;;41.85;19.75;;;;;;;15.31;79.65;101893.22;1758500;80;25994;-66
2021/10/07 10:08:18;;;;;;;27.50;19.35;;;;;;;15.37;79.52;101885.72;1746328;80;25964;-66
2021/10/07 10:10:46;;;;;;;25.45;18.45;;;;;;;15.34;79.11;101891.73;1724836;80;26297;-67
2021/10/07 10:13:15;;;;;;;29.25;18.48;;;;;;;15.31;78.90;101891.39;1755254;80;25737;-65
2021/10/07 10:15:42;;;;;;;32.75;16.95;;;;;;;15.32;78.83;101893.63;1755280;80;27586;-67
2021/10/07 10:18:10;;;;;;;30.88;17.77;;;;;;;15.33;78.67;101895.38;1744696;80;27115;-64
2021/10/07 10:20:41;;;;;;;33.80;16.80;;;;;;;15.34;78.58;101891.73;1738219;80;25749;-64
2021/10/07 10:23:14;;;;;;;28.42;18.92;;;;;;;15.42;78.40;101893.16;1744223;80;26340;-64
2021/10/07 10:26:13;;;;;;;32.38;19.10;;;;;;;15.52;78.40;101893.16;1745516;80;25742;-64
2021/10/07 10:28:50;;;;;;;34.83;19.27;;;;;;;15.73;78.48;101895.86;1745642;80;28029;-64
2021/10/07 10:31:40;;;;;;;35.63;20.02;;;;;;;15.87;77.92;101896.11;1748205;80;25856;-64
2021/10/07 10:34:13;;;;;;;27.60;16.93;;;;;;;15.94;77.93;101896.23;1758756;80;25814;-64
2021/10/07 10:36:49;;;;;;;38.10;19.10;;;;;;;16.13;77.87;101898.97;1771143;80;26663;-64
2021/10/07 10:39:26;;;;;;;29.10;17.98;;;;;;;16.14;77.09;101905.66;1771586;80;25652;-64
2021/10/07 10:42:02;;;;;;;29.57;17.70;;;;;;;16.16;77.02;101913.70;1747879;80;28057;-64
2021/10/07 10:44:37;;;;;;;30.85;17.80;;;;;;;16.16;76.67;101914.58;1764656;80;25774;-64
2021/10/07 10:47:11;;;;;;;34.38;16.17;;;;;;;16.20;76.57;101920.25;1774925;80;25797;-64
2021/10/07 10:50:03;;;;;;;30.70;16.48;;;;;;;16.31;76.47;101927.88;1748710;80;26070;-64
2021/10/07 10:52:45;;;;;;;24.63;15.43;;;;;;;16.28;75.76;101925.31;1770393;80;25918;-63
2021/10/07 10:55:27;;;;;;;34.58;16.23;;;;;;;16.12;75.55;101937.78;1761285;80;27386;-64
2021/10/07 10:58:03;;;;;;;26.35;15.60;;;;;;;16.12;75.13;101931.03;1703318;82;25758;-64
2021/10/07 11:00:40;;;;;;;34.55;15.95;;;;;;;16.13;74.66;101936.36;1725132;81;25796;-64
2021/10/07 11:03:26;;;;;;;27.37;15.72;;;;;;;16.01;74.20;101945.52;1719581;82;25943;-63
2021/10/07 11:06:03;;;;;;;32.65;17.37;;;;;;;15.88;74.07;101946.06;1726075;81;26088;-63
2021/10/07 11:08:32;;;;;;;27.85;16.00;;;;;;;15.89;74.14;101945.12;1726480;81;27544;-67
2021/10/07 11:11:00;;;;;;;36.90;19.57;;;;;;;15.86;73.71;101949.78;1721511;81;25739;-67
2021/10/07 11:13:30;;;;;;;26.70;15.78;;;;;;;15.80;73.57;101944.65;1724985;81;26561;-65
2021/10/07 11:16:00;;;;;;;29.67;15.98;;;;;;;15.64;72.90;101953.03;1722737;81;26611;-67